Arapahoe, Colorado
Current Conditions -  °F | °C
As of 5:53 PM on Thursday 30 Oct 2014 (Local Time) from KITR Reporting Station
Clear Clear  
Wind Chill: 55°   Ceiling: Unl
Heat Index: 55°   Visibility: 10mi
Dew Point: 25°   Wind: 7mph
Humidity: 31%   Direction: 350°N
Pressure: 30.33"   Gusts: NA
Location:  38.85°N, 102.18°W
Report Text: KITR 302353Z AUTO 35006KT 10SM CLR 13/M04 A3033 RMK AO2 SLP263 T01281039 10183 20128 53009
Loading
Personal Weather Stations






























Interactive Weather Map
Tropical Storm Tracking
New forecast layout! Learn more

10-Day Weather Forecast

Advertisements
Track Severe Weather on mobile